sensor_id;sensor_type;location;lat;lon;timestamp;temperature;humidity
429;DHT22;201;48.758;9.290;2023-12-22T00:02:16;6.70;8.10
429;DHT22;201;48.758;9.290;2023-12-22T00:04:41;6.70;8.90
429;DHT22;201;48.758;9.290;2023-12-22T00:07:07;6.60;8.70
429;DHT22;201;48.758;9.290;2023-12-22T00:09:32;6.50;9.60
429;DHT22;201;48.758;9.290;2023-12-22T00:11:58;6.50;9.90
429;DHT22;201;48.758;9.290;2023-12-22T00:14:24;6.40;9.10
429;DHT22;201;48.758;9.290;2023-12-22T00:16:49;6.40;9.70
429;DHT22;201;48.758;9.290;2023-12-22T00:19:15;6.40;10.00
429;DHT22;201;48.758;9.290;2023-12-22T00:21:40;6.40;11.00
429;DHT22;201;48.758;9.290;2023-12-22T00:24:06;6.50;11.70
429;DHT22;201;48.758;9.290;2023-12-22T00:26:32;6.60;12.30
429;DHT22;201;48.758;9.290;2023-12-22T00:28:57;6.60;12.70
429;DHT22;201;48.758;9.290;2023-12-22T00:31:23;6.70;13.30
429;DHT22;201;48.758;9.290;2023-12-22T00:33:48;6.80;13.30
429;DHT22;201;48.758;9.290;2023-12-22T00:36:14;6.90;12.50
429;DHT22;201;48.758;9.290;2023-12-22T00:38:40;6.90;13.50
429;DHT22;201;48.758;9.290;2023-12-22T00:41:06;6.90;13.80
429;DHT22;201;48.758;9.290;2023-12-22T00:43:31;6.90;13.00
429;DHT22;201;48.758;9.290;2023-12-22T00:45:57;6.90;14.40
429;DHT22;201;48.758;9.290;2023-12-22T00:48:23;6.60;11.60
429;DHT22;201;48.758;9.290;2023-12-22T00:50:48;6.40;11.70
429;DHT22;201;48.758;9.290;2023-12-22T00:53:14;6.40;11.60
429;DHT22;201;48.758;9.290;2023-12-22T00:55:39;6.30;12.50
429;DHT22;201;48.758;9.290;2023-12-22T00:58:05;6.40;13.40
429;DHT22;201;48.758;9.290;2023-12-22T01:00:30;6.40;13.60
429;DHT22;201;48.758;9.290;2023-12-22T01:02:56;6.30;13.70
429;DHT22;201;48.758;9.290;2023-12-22T01:05:21;6.40;14.10
429;DHT22;201;48.758;9.290;2023-12-22T01:07:47;6.40;14.50
429;DHT22;201;48.758;9.290;2023-12-22T01:10:12;6.40;14.90
429;DHT22;201;48.758;9.290;2023-12-22T01:12:38;6.40;15.20
429;DHT22;201;48.758;9.290;2023-12-22T01:15:04;6.40;15.30
429;DHT22;201;48.758;9.290;2023-12-22T01:17:29;6.40;15.40
429;DHT22;201;48.758;9.290;2023-12-22T01:19:55;6.40;15.60
429;DHT22;201;48.758;9.290;2023-12-22T01:22:20;6.50;15.40
429;DHT22;201;48.758;9.290;2023-12-22T01:24:48;6.40;15.50
429;DHT22;201;48.758;9.290;2023-12-22T01:27:13;6.50;15.40
429;DHT22;201;48.758;9.290;2023-12-22T01:29:39;6.50;14.80
429;DHT22;201;48.758;9.290;2023-12-22T01:32:05;6.50;14.70
429;DHT22;201;48.758;9.290;2023-12-22T01:34:30;6.50;14.70
429;DHT22;201;48.758;9.290;2023-12-22T01:36:56;6.50;14.10
429;DHT22;201;48.758;9.290;2023-12-22T01:39:21;6.50;13.10
429;DHT22;201;48.758;9.290;2023-12-22T01:41:47;6.40;12.50
429;DHT22;201;48.758;9.290;2023-12-22T01:44:13;6.40;11.60
429;DHT22;201;48.758;9.290;2023-12-22T01:46:38;6.40;11.20
429;DHT22;201;48.758;9.290;2023-12-22T01:49:05;6.40;10.90
429;DHT22;201;48.758;9.290;2023-12-22T01:51:33;6.40;9.80
429;DHT22;201;48.758;9.290;2023-12-22T01:54:00;6.40;7.80
429;DHT22;201;48.758;9.290;2023-12-22T01:56:26;6.50;5.90
429;DHT22;201;48.758;9.290;2023-12-22T01:58:53;6.50;4.60
429;DHT22;201;48.758;9.290;2023-12-22T02:01:20;6.50;4.60
429;DHT22;201;48.758;9.290;2023-12-22T02:03:51;6.50;4.20
429;DHT22;201;48.758;9.290;2023-12-22T02:06:18;6.50;3.30
429;DHT22;201;48.758;9.290;2023-12-22T02:08:46;6.50;2.40
429;DHT22;201;48.758;9.290;2023-12-22T02:11:12;6.50;1.90
429;DHT22;201;48.758;9.290;2023-12-22T02:13:38;6.50;2.10
429;DHT22;201;48.758;9.290;2023-12-22T02:17:14;6.60;2.30
429;DHT22;201;48.758;9.290;2023-12-22T02:19:35;6.60;1.00
429;DHT22;201;48.758;9.290;2023-12-22T02:22:06;6.60;1.40
429;DHT22;201;48.758;9.290;2023-12-22T02:24:32;6.60;1.40
429;DHT22;201;48.758;9.290;2023-12-22T02:27:06;6.60;1.00
429;DHT22;201;48.758;9.290;2023-12-22T02:29:43;6.70;1.00
429;DHT22;201;48.758;9.290;2023-12-22T02:32:17;6.70;1.00
429;DHT22;201;48.758;9.290;2023-12-22T02:34:48;6.70;1.00
429;DHT22;201;48.758;9.290;2023-12-22T02:37:15;6.70;1.00
429;DHT22;201;48.758;9.290;2023-12-22T02:39:41;6.70;1.00
429;DHT22;201;48.758;9.290;2023-12-22T02:42:08;6.70;1.00
429;DHT22;201;48.758;9.290;2023-12-22T02:44:34;6.80;1.00
429;DHT22;201;48.758;9.290;2023-12-22T02:47:00;6.90;1.00
429;DHT22;201;48.758;9.290;2023-12-22T02:49:25;6.90;1.00
429;DHT22;201;48.758;9.290;2023-12-22T02:51:51;6.90;1.00
429;DHT22;201;48.758;9.290;2023-12-22T02:54:16;6.90;1.00
429;DHT22;201;48.758;9.290;2023-12-22T02:56:42;7.00;1.00
429;DHT22;201;48.758;9.290;2023-12-22T02:59:10;7.00;1.00
429;DHT22;201;48.758;9.290;2023-12-22T03:01:36;7.00;1.00
429;DHT22;201;48.758;9.290;2023-12-22T03:04:01;7.00;1.00
429;DHT22;201;48.758;9.290;2023-12-22T03:06:27;7.00;1.00
429;DHT22;201;48.758;9.290;2023-12-22T03:08:52;7.10;1.00
429;DHT22;201;48.758;9.290;2023-12-22T03:11:18;7.10;1.00
429;DHT22;201;48.758;9.290;2023-12-22T03:13:43;7.10;1.00
429;DHT22;201;48.758;9.290;2023-12-22T03:16:09;7.20;1.00
429;DHT22;201;48.758;9.290;2023-12-22T03:18:34;7.20;1.00
429;DHT22;201;48.758;9.290;2023-12-22T03:21:00;7.20;1.00
429;DHT22;201;48.758;9.290;2023-12-22T03:23:25;7.20;1.00
429;DHT22;201;48.758;9.290;2023-12-22T03:25:51;7.20;1.00
429;DHT22;201;48.758;9.290;2023-12-22T03:28:16;7.30;1.00
429;DHT22;201;48.758;9.290;2023-12-22T03:30:42;7.30;1.00
429;DHT22;201;48.758;9.290;2023-12-22T03:33:07;7.30;1.00
429;DHT22;201;48.758;9.290;2023-12-22T03:35:33;7.40;1.00
429;DHT22;201;48.758;9.290;2023-12-22T03:37:59;7.40;1.00
429;DHT22;201;48.758;9.290;2023-12-22T03:40:24;7.40;1.00
429;DHT22;201;48.758;9.290;2023-12-22T03:42:50;7.50;1.00
429;DHT22;201;48.758;9.290;2023-12-22T03:45:15;7.50;1.00
429;DHT22;201;48.758;9.290;2023-12-22T03:47:41;7.50;1.00
429;DHT22;201;48.758;9.290;2023-12-22T03:50:06;7.50;1.00
429;DHT22;201;48.758;9.290;2023-12-22T03:52:32;7.50;1.00
429;DHT22;201;48.758;9.290;2023-12-22T03:54:58;7.50;1.00
429;DHT22;201;48.758;9.290;2023-12-22T03:57:23;7.50;1.00
429;DHT22;201;48.758;9.290;2023-12-22T03:59:49;7.50;1.00
429;DHT22;201;48.758;9.290;2023-12-22T04:02:15;7.50;1.00
429;DHT22;201;48.758;9.290;2023-12-22T04:04:40;7.40;1.00
429;DHT22;201;48.758;9.290;2023-12-22T04:07:06;7.40;1.00
429;DHT22;201;48.758;9.290;2023-12-22T04:09:31;7.20;1.00
429;DHT22;201;48.758;9.290;2023-12-22T04:11:57;7.00;1.00
429;DHT22;201;48.758;9.290;2023-12-22T04:14:22;6.80;2.70
429;DHT22;201;48.758;9.290;2023-12-22T04:16:48;6.60;4.20
429;DHT22;201;48.758;9.290;2023-12-22T04:19:13;6.40;5.60
429;DHT22;201;48.758;9.290;2023-12-22T04:21:39;6.40;6.80
429;DHT22;201;48.758;9.290;2023-12-22T04:24:05;6.30;7.20
429;DHT22;201;48.758;9.290;2023-12-22T04:26:30;6.20;7.70
429;DHT22;201;48.758;9.290;2023-12-22T04:28:56;6.20;7.70
429;DHT22;201;48.758;9.290;2023-12-22T04:31:21;6.20;7.70
429;DHT22;201;48.758;9.290;2023-12-22T04:33:47;6.20;7.70
429;DHT22;201;48.758;9.290;2023-12-22T04:36:12;6.20;7.70
429;DHT22;201;48.758;9.290;2023-12-22T04:38:38;6.20;7.70
429;DHT22;201;48.758;9.290;2023-12-22T04:41:05;6.20;7.70
429;DHT22;201;48.758;9.290;2023-12-22T04:43:31;6.20;7.70
429;DHT22;201;48.758;9.290;2023-12-22T04:45:56;6.30;4.20
429;DHT22;201;48.758;9.290;2023-12-22T04:48:22;6.40;4.20
429;DHT22;201;48.758;9.290;2023-12-22T04:50:47;6.40;3.10
429;DHT22;201;48.758;9.290;2023-12-22T04:53:13;6.50;1.50
429;DHT22;201;48.758;9.290;2023-12-22T04:55:38;6.50;1.30
429;DHT22;201;48.758;9.290;2023-12-22T04:58:04;6.60;1.00
429;DHT22;201;48.758;9.290;2023-12-22T05:00:30;6.60;1.00
429;DHT22;201;48.758;9.290;2023-12-22T05:02:55;6.60;1.00
429;DHT22;201;48.758;9.290;2023-12-22T05:05:21;6.70;1.00
429;DHT22;201;48.758;9.290;2023-12-22T05:07:46;6.70;1.00
429;DHT22;201;48.758;9.290;2023-12-22T05:10:12;6.70;1.00
429;DHT22;201;48.758;9.290;2023-12-22T05:12:37;6.80;1.00
429;DHT22;201;48.758;9.290;2023-12-22T05:15:03;6.80;1.00
429;DHT22;201;48.758;9.290;2023-12-22T05:17:29;6.90;1.00
429;DHT22;201;48.758;9.290;2023-12-22T05:19:54;6.90;1.00
429;DHT22;201;48.758;9.290;2023-12-22T05:22:20;6.90;1.00
429;DHT22;201;48.758;9.290;2023-12-22T05:24:45;7.00;1.00
429;DHT22;201;48.758;9.290;2023-12-22T05:27:11;7.10;1.00
429;DHT22;201;48.758;9.290;2023-12-22T05:29:37;7.20;1.00
429;DHT22;201;48.758;9.290;2023-12-22T05:32:02;7.10;1.00
429;DHT22;201;48.758;9.290;2023-12-22T05:34:28;7.10;1.00
429;DHT22;201;48.758;9.290;2023-12-22T05:36:53;7.10;1.00
429;DHT22;201;48.758;9.290;2023-12-22T05:39:19;7.20;1.00
429;DHT22;201;48.758;9.290;2023-12-22T05:41:44;7.20;1.00
429;DHT22;201;48.758;9.290;2023-12-22T05:44:10;7.20;1.00
429;DHT22;201;48.758;9.290;2023-12-22T05:46:38;7.10;1.00
429;DHT22;201;48.758;9.290;2023-12-22T05:49:04;7.00;1.00
429;DHT22;201;48.758;9.290;2023-12-22T05:51:39;6.90;1.00
429;DHT22;201;48.758;9.290;2023-12-22T05:54:05;6.80;1.00
429;DHT22;201;48.758;9.290;2023-12-22T05:56:31;6.80;1.00
429;DHT22;201;48.758;9.290;2023-12-22T05:58:56;6.90;1.00
429;DHT22;201;48.758;9.290;2023-12-22T06:01:22;7.00;1.00
429;DHT22;201;48.758;9.290;2023-12-22T06:03:47;7.10;1.00
429;DHT22;201;48.758;9.290;2023-12-22T06:06:13;7.10;1.00
429;DHT22;201;48.758;9.290;2023-12-22T06:08:39;7.20;1.00
429;DHT22;201;48.758;9.290;2023-12-22T06:11:05;7.20;1.00
429;DHT22;201;48.758;9.290;2023-12-22T06:13:31;7.20;1.00
429;DHT22;201;48.758;9.290;2023-12-22T06:15:57;7.30;1.00
429;DHT22;201;48.758;9.290;2023-12-22T06:18:22;7.40;1.00
429;DHT22;201;48.758;9.290;2023-12-22T06:20:48;7.40;1.00
429;DHT22;201;48.758;9.290;2023-12-22T06:23:13;7.50;1.00
429;DHT22;201;48.758;9.290;2023-12-22T06:25:39;7.50;1.00
429;DHT22;201;48.758;9.290;2023-12-22T06:28:04;7.50;1.00
429;DHT22;201;48.758;9.290;2023-12-22T06:30:30;7.50;1.00
429;DHT22;201;48.758;9.290;2023-12-22T06:32:56;7.50;1.00
429;DHT22;201;48.758;9.290;2023-12-22T06:35:21;7.50;1.00
429;DHT22;201;48.758;9.290;2023-12-22T06:37:50;7.50;1.00
429;DHT22;201;48.758;9.290;2023-12-22T06:40:15;7.50;1.00
429;DHT22;201;48.758;9.290;2023-12-22T06:42:41;7.60;1.00
429;DHT22;201;48.758;9.290;2023-12-22T06:45:07;7.50;1.00
429;DHT22;201;48.758;9.290;2023-12-22T06:47:32;7.50;1.00
429;DHT22;201;48.758;9.290;2023-12-22T06:49:58;7.60;1.00
429;DHT22;201;48.758;9.290;2023-12-22T06:52:24;7.60;1.00
429;DHT22;201;48.758;9.290;2023-12-22T06:54:50;7.60;1.00
429;DHT22;201;48.758;9.290;2023-12-22T06:57:15;7.60;1.00
429;DHT22;201;48.758;9.290;2023-12-22T06:59:42;7.60;1.00
429;DHT22;201;48.758;9.290;2023-12-22T07:02:07;7.60;1.00
429;DHT22;201;48.758;9.290;2023-12-22T07:04:33;7.70;1.00
429;DHT22;201;48.758;9.290;2023-12-22T07:06:58;7.60;1.00
429;DHT22;201;48.758;9.290;2023-12-22T07:11:50;7.60;1.00
429;DHT22;201;48.758;9.290;2023-12-22T07:14:16;7.60;1.00
429;DHT22;201;48.758;9.290;2023-12-22T07:16:42;7.60;1.00
429;DHT22;201;48.758;9.290;2023-12-22T07:19:08;7.50;1.00
429;DHT22;201;48.758;9.290;2023-12-22T07:21:34;7.50;1.00
429;DHT22;201;48.758;9.290;2023-12-22T07:24:00;7.50;1.00
429;DHT22;201;48.758;9.290;2023-12-22T07:26:26;7.50;1.00
429;DHT22;201;48.758;9.290;2023-12-22T07:28:52;7.40;1.00
429;DHT22;201;48.758;9.290;2023-12-22T07:31:18;7.50;1.00
429;DHT22;201;48.758;9.290;2023-12-22T07:33:43;7.40;1.00
429;DHT22;201;48.758;9.290;2023-12-22T07:36:09;7.40;1.00
429;DHT22;201;48.758;9.290;2023-12-22T07:38:35;7.40;1.00
429;DHT22;201;48.758;9.290;2023-12-22T07:41:01;7.40;1.00
429;DHT22;201;48.758;9.290;2023-12-22T07:43:26;7.40;1.00
429;DHT22;201;48.758;9.290;2023-12-22T07:45:52;7.40;1.00
429;DHT22;201;48.758;9.290;2023-12-22T07:48:18;7.40;1.00
429;DHT22;201;48.758;9.290;2023-12-22T07:50:43;7.30;1.00
429;DHT22;201;48.758;9.290;2023-12-22T07:53:09;7.40;1.00
429;DHT22;201;48.758;9.290;2023-12-22T07:55:35;7.40;1.00
429;DHT22;201;48.758;9.290;2023-12-22T07:58:01;7.30;1.00
429;DHT22;201;48.758;9.290;2023-12-22T08:00:26;7.40;1.00
429;DHT22;201;48.758;9.290;2023-12-22T08:02:53;7.30;1.00
429;DHT22;201;48.758;9.290;2023-12-22T08:05:18;7.30;1.00
429;DHT22;201;48.758;9.290;2023-12-22T08:07:44;7.30;1.00
429;DHT22;201;48.758;9.290;2023-12-22T08:10:10;7.30;1.00
429;DHT22;201;48.758;9.290;2023-12-22T08:12:36;7.20;1.00
429;DHT22;201;48.758;9.290;2023-12-22T08:15:01;7.10;1.60
429;DHT22;201;48.758;9.290;2023-12-22T08:17:27;7.00;3.20
429;DHT22;201;48.758;9.290;2023-12-22T08:19:53;6.80;4.50
429;DHT22;201;48.758;9.290;2023-12-22T08:22:19;6.70;5.50
429;DHT22;201;48.758;9.290;2023-12-22T08:24:44;6.70;6.30
429;DHT22;201;48.758;9.290;2023-12-22T08:27:10;6.60;7.20
429;DHT22;201;48.758;9.290;2023-12-22T08:29:36;6.60;8.00
429;DHT22;201;48.758;9.290;2023-12-22T08:32:02;6.50;7.90
429;DHT22;201;48.758;9.290;2023-12-22T08:34:28;6.50;8.80
429;DHT22;201;48.758;9.290;2023-12-22T08:36:53;6.40;9.50
429;DHT22;201;48.758;9.290;2023-12-22T08:39:19;6.30;9.80
429;DHT22;201;48.758;9.290;2023-12-22T08:41:45;6.30;10.40
429;DHT22;201;48.758;9.290;2023-12-22T08:44:11;6.30;11.20
429;DHT22;201;48.758;9.290;2023-12-22T08:46:39;6.30;9.90
429;DHT22;201;48.758;9.290;2023-12-22T08:49:05;6.40;10.20
429;DHT22;201;48.758;9.290;2023-12-22T08:51:30;6.40;9.80
429;DHT22;201;48.758;9.290;2023-12-22T08:53:56;6.40;9.60
429;DHT22;201;48.758;9.290;2023-12-22T08:56:25;6.50;8.90
429;DHT22;201;48.758;9.290;2023-12-22T08:58:54;6.60;8.00
429;DHT22;201;48.758;9.290;2023-12-22T09:01:21;6.70;8.00
429;DHT22;201;48.758;9.290;2023-12-22T09:03:47;6.70;7.30
429;DHT22;201;48.758;9.290;2023-12-22T09:06:17;6.80;6.00
429;DHT22;201;48.758;9.290;2023-12-22T09:08:43;6.80;5.50
429;DHT22;201;48.758;9.290;2023-12-22T09:11:13;6.80;4.90
429;DHT22;201;48.758;9.290;2023-12-22T09:13:40;6.90;3.80
429;DHT22;201;48.758;9.290;2023-12-22T09:16:07;6.90;3.20
429;DHT22;201;48.758;9.290;2023-12-22T09:18:33;6.90;3.90
429;DHT22;201;48.758;9.290;2023-12-22T09:20:58;7.00;2.80
429;DHT22;201;48.758;9.290;2023-12-22T09:23:24;7.00;3.40
429;DHT22;201;48.758;9.290;2023-12-22T09:25:50;7.00;2.60
429;DHT22;201;48.758;9.290;2023-12-22T09:28:16;7.00;2.00
429;DHT22;201;48.758;9.290;2023-12-22T09:30:41;7.20;1.00
429;DHT22;201;48.758;9.290;2023-12-22T09:33:11;7.20;1.00
429;DHT22;201;48.758;9.290;2023-12-22T09:35:37;7.30;1.00
429;DHT22;201;48.758;9.290;2023-12-22T09:38:03;7.30;1.00
429;DHT22;201;48.758;9.290;2023-12-22T09:40:29;7.40;1.00
429;DHT22;201;48.758;9.290;2023-12-22T09:42:56;7.40;1.00
429;DHT22;201;48.758;9.290;2023-12-22T09:45:23;7.50;1.00
429;DHT22;201;48.758;9.290;2023-12-22T09:47:50;7.60;1.00
429;DHT22;201;48.758;9.290;2023-12-22T09:50:17;7.60;1.00
429;DHT22;201;48.758;9.290;2023-12-22T09:52:44;7.60;1.00
429;DHT22;201;48.758;9.290;2023-12-22T09:55:14;7.60;1.00
429;DHT22;201;48.758;9.290;2023-12-22T09:57:41;7.60;1.00
429;DHT22;201;48.758;9.290;2023-12-22T10:00:08;7.70;1.00
429;DHT22;201;48.758;9.290;2023-12-22T10:02:36;7.70;1.00
429;DHT22;201;48.758;9.290;2023-12-22T10:05:02;7.70;1.00
429;DHT22;201;48.758;9.290;2023-12-22T10:07:28;7.70;1.00
429;DHT22;201;48.758;9.290;2023-12-22T10:09:55;7.80;1.00
429;DHT22;201;48.758;9.290;2023-12-22T10:12:22;7.80;1.00
429;DHT22;201;48.758;9.290;2023-12-22T10:14:48;7.80;1.00
429;DHT22;201;48.758;9.290;2023-12-22T10:17:15;7.80;1.00
429;DHT22;201;48.758;9.290;2023-12-22T10:19:42;7.80;1.00
429;DHT22;201;48.758;9.290;2023-12-22T10:22:07;7.90;1.00
429;DHT22;201;48.758;9.290;2023-12-22T10:24:44;7.90;1.00
429;DHT22;201;48.758;9.290;2023-12-22T10:27:12;7.90;1.00
429;DHT22;201;48.758;9.290;2023-12-22T10:29:38;8.00;1.00
429;DHT22;201;48.758;9.290;2023-12-22T10:32:05;8.00;1.00
429;DHT22;201;48.758;9.290;2023-12-22T10:34:31;8.00;1.00
429;DHT22;201;48.758;9.290;2023-12-22T10:36:59;8.10;1.00
429;DHT22;201;48.758;9.290;2023-12-22T10:39:29;8.20;1.00
429;DHT22;201;48.758;9.290;2023-12-22T10:41:56;8.10;1.00
429;DHT22;201;48.758;9.290;2023-12-22T10:44:29;8.20;1.00
429;DHT22;201;48.758;9.290;2023-12-22T10:46:55;8.20;1.00
429;DHT22;201;48.758;9.290;2023-12-22T10:49:21;8.20;1.00
429;DHT22;201;48.758;9.290;2023-12-22T10:51:47;8.20;1.00
429;DHT22;201;48.758;9.290;2023-12-22T10:54:13;8.20;1.00
429;DHT22;201;48.758;9.290;2023-12-22T10:56:39;8.10;1.00
429;DHT22;201;48.758;9.290;2023-12-22T10:59:05;8.20;1.00
429;DHT22;201;48.758;9.290;2023-12-22T11:01:32;8.20;1.00
429;DHT22;201;48.758;9.290;2023-12-22T11:04:02;8.20;1.00
429;DHT22;201;48.758;9.290;2023-12-22T11:06:35;8.20;1.00
429;DHT22;201;48.758;9.290;2023-12-22T11:09:06;8.20;1.00
429;DHT22;201;48.758;9.290;2023-12-22T11:11:37;8.20;1.00
429;DHT22;201;48.758;9.290;2023-12-22T11:14:04;8.10;1.00
429;DHT22;201;48.758;9.290;2023-12-22T11:16:32;8.10;1.00
429;DHT22;201;48.758;9.290;2023-12-22T11:19:00;8.10;1.00
429;DHT22;201;48.758;9.290;2023-12-22T11:21:26;8.10;1.00
429;DHT22;201;48.758;9.290;2023-12-22T11:23:52;8.10;1.00
429;DHT22;201;48.758;9.290;2023-12-22T11:26:19;8.10;1.00
429;DHT22;201;48.758;9.290;2023-12-22T11:28:46;8.00;1.00
429;DHT22;201;48.758;9.290;2023-12-22T11:31:16;8.00;1.00
429;DHT22;201;48.758;9.290;2023-12-22T11:36:12;7.80;1.00
429;DHT22;201;48.758;9.290;2023-12-22T11:38:42;7.90;1.40
429;DHT22;201;48.758;9.290;2023-12-22T11:41:16;7.70;2.00
429;DHT22;201;48.758;9.290;2023-12-22T11:43:44;7.70;2.30
429;DHT22;201;48.758;9.290;2023-12-22T11:46:10;7.70;2.50
429;DHT22;201;48.758;9.290;2023-12-22T11:48:37;7.70;2.90
429;DHT22;201;48.758;9.290;2023-12-22T11:51:14;7.70;3.20
429;DHT22;201;48.758;9.290;2023-12-22T11:53:41;7.60;3.70
429;DHT22;201;48.758;9.290;2023-12-22T11:56:08;7.60;4.30
429;DHT22;201;48.758;9.290;2023-12-22T12:01:12;7.50;4.80
429;DHT22;201;48.758;9.290;2023-12-22T12:03:52;7.50;5.50
429;DHT22;201;48.758;9.290;2023-12-22T12:09:00;7.40;6.70
429;DHT22;201;48.758;9.290;2023-12-22T12:14:32;7.40;6.90
429;DHT22;201;48.758;9.290;2023-12-22T12:17:06;7.40;6.80
429;DHT22;201;48.758;9.290;2023-12-22T12:19:39;7.40;6.80
429;DHT22;201;48.758;9.290;2023-12-22T12:22:05;7.40;6.50
429;DHT22;201;48.758;9.290;2023-12-22T12:24:31;7.40;6.70
429;DHT22;201;48.758;9.290;2023-12-22T12:26:56;7.70;8.70
429;DHT22;201;48.758;9.290;2023-12-22T12:29:22;7.90;8.00
429;DHT22;201;48.758;9.290;2023-12-22T12:31:48;7.70;5.20
429;DHT22;201;48.758;9.290;2023-12-22T12:34:14;7.60;5.40
429;DHT22;201;48.758;9.290;2023-12-22T12:36:44;7.60;5.80
429;DHT22;201;48.758;9.290;2023-12-22T12:39:14;7.70;5.80
429;DHT22;201;48.758;9.290;2023-12-22T12:41:42;7.50;5.30
429;DHT22;201;48.758;9.290;2023-12-22T12:44:10;7.60;5.60
429;DHT22;201;48.758;9.290;2023-12-22T12:46:36;7.50;5.60
429;DHT22;201;48.758;9.290;2023-12-22T12:49:06;7.50;5.20
429;DHT22;201;48.758;9.290;2023-12-22T12:51:39;7.50;5.60
429;DHT22;201;48.758;9.290;2023-12-22T12:54:06;7.50;5.90
429;DHT22;201;48.758;9.290;2023-12-22T12:56:42;7.40;5.70
429;DHT22;201;48.758;9.290;2023-12-22T12:59:12;7.40;6.30
429;DHT22;201;48.758;9.290;2023-12-22T13:01:39;7.40;6.70
429;DHT22;201;48.758;9.290;2023-12-22T13:04:05;7.50;6.90
429;DHT22;201;48.758;9.290;2023-12-22T13:06:30;7.50;7.00
429;DHT22;201;48.758;9.290;2023-12-22T13:08:56;7.50;6.60
429;DHT22;201;48.758;9.290;2023-12-22T13:11:22;7.50;6.80
429;DHT22;201;48.758;9.290;2023-12-22T13:13:48;7.60;6.80
429;DHT22;201;48.758;9.290;2023-12-22T13:16:20;7.60;7.20
429;DHT22;201;48.758;9.290;2023-12-22T13:18:48;7.60;7.50
429;DHT22;201;48.758;9.290;2023-12-22T13:21:14;7.70;7.20
429;DHT22;201;48.758;9.290;2023-12-22T13:23:40;7.70;7.00
429;DHT22;201;48.758;9.290;2023-12-22T13:26:06;7.70;7.00
429;DHT22;201;48.758;9.290;2023-12-22T13:28:31;7.80;6.80
429;DHT22;201;48.758;9.290;2023-12-22T13:30:57;7.80;7.00
429;DHT22;201;48.758;9.290;2023-12-22T13:33:22;7.90;6.80
429;DHT22;201;48.758;9.290;2023-12-22T13:35:56;7.90;6.50
429;DHT22;201;48.758;9.290;2023-12-22T13:38:22;8.00;6.60
429;DHT22;201;48.758;9.290;2023-12-22T13:40:49;8.10;6.80
429;DHT22;201;48.758;9.290;2023-12-22T13:43:14;8.10;6.50
429;DHT22;201;48.758;9.290;2023-12-22T13:45:40;8.20;6.50
429;DHT22;201;48.758;9.290;2023-12-22T13:48:06;8.30;6.20
429;DHT22;201;48.758;9.290;2023-12-22T13:50:32;8.30;5.90
429;DHT22;201;48.758;9.290;2023-12-22T13:53:10;8.40;5.60
429;DHT22;201;48.758;9.290;2023-12-22T13:55:35;8.50;5.50
429;DHT22;201;48.758;9.290;2023-12-22T13:58:03;8.60;5.00
429;DHT22;201;48.758;9.290;2023-12-22T14:00:31;8.70;4.40
429;DHT22;201;48.758;9.290;2023-12-22T14:02:57;8.80;3.80
429;DHT22;201;48.758;9.290;2023-12-22T14:05:23;8.80;3.80
429;DHT22;201;48.758;9.290;2023-12-22T14:07:49;8.90;3.50
429;DHT22;201;48.758;9.290;2023-12-22T14:10:15;9.00;2.70
429;DHT22;201;48.758;9.290;2023-12-22T14:12:41;9.10;2.90
429;DHT22;201;48.758;9.290;2023-12-22T14:15:10;9.00;2.70
429;DHT22;201;48.758;9.290;2023-12-22T14:17:37;9.10;2.20
429;DHT22;201;48.758;9.290;2023-12-22T14:20:03;9.10;1.80
429;DHT22;201;48.758;9.290;2023-12-22T14:22:37;9.10;1.80
429;DHT22;201;48.758;9.290;2023-12-22T14:25:04;9.10;2.20
429;DHT22;201;48.758;9.290;2023-12-22T14:27:30;9.10;1.60
429;DHT22;201;48.758;9.290;2023-12-22T14:29:55;9.20;1.30
429;DHT22;201;48.758;9.290;2023-12-22T14:32:21;9.20;1.60
429;DHT22;201;48.758;9.290;2023-12-22T14:34:48;9.20;1.20
429;DHT22;201;48.758;9.290;2023-12-22T14:37:14;9.20;1.30
429;DHT22;201;48.758;9.290;2023-12-22T14:39:41;9.20;1.30
429;DHT22;201;48.758;9.290;2023-12-22T14:42:07;9.20;1.00
429;DHT22;201;48.758;9.290;2023-12-22T14:44:33;9.20;1.00
429;DHT22;201;48.758;9.290;2023-12-22T14:46:58;9.30;1.00
429;DHT22;201;48.758;9.290;2023-12-22T14:49:24;9.30;1.00
429;DHT22;201;48.758;9.290;2023-12-22T14:51:49;9.30;1.00
429;DHT22;201;48.758;9.290;2023-12-22T14:54:20;9.30;1.00
429;DHT22;201;48.758;9.290;2023-12-22T14:56:46;9.30;1.00
429;DHT22;201;48.758;9.290;2023-12-22T14:59:12;9.30;1.00
429;DHT22;201;48.758;9.290;2023-12-22T15:01:39;9.30;1.00
429;DHT22;201;48.758;9.290;2023-12-22T15:04:05;9.30;1.00
429;DHT22;201;48.758;9.290;2023-12-22T15:06:31;9.30;1.00
429;DHT22;201;48.758;9.290;2023-12-22T15:08:57;9.30;1.00
429;DHT22;201;48.758;9.290;2023-12-22T15:11:24;9.30;1.00
429;DHT22;201;48.758;9.290;2023-12-22T15:13:50;9.40;1.00
429;DHT22;201;48.758;9.290;2023-12-22T15:16:16;9.40;1.00
429;DHT22;201;48.758;9.290;2023-12-22T15:18:41;9.30;1.00
429;DHT22;201;48.758;9.290;2023-12-22T15:21:07;9.40;1.00
429;DHT22;201;48.758;9.290;2023-12-22T15:23:32;9.40;1.00
429;DHT22;201;48.758;9.290;2023-12-22T15:25:58;9.40;1.00
429;DHT22;201;48.758;9.290;2023-12-22T15:28:24;9.40;1.10
429;DHT22;201;48.758;9.290;2023-12-22T15:30:49;9.30;1.00
429;DHT22;201;48.758;9.290;2023-12-22T15:33:15;9.40;1.10
429;DHT22;201;48.758;9.290;2023-12-22T15:35:40;9.30;1.00
429;DHT22;201;48.758;9.290;2023-12-22T15:38:06;9.30;1.00
429;DHT22;201;48.758;9.290;2023-12-22T15:40:31;9.30;1.00
429;DHT22;201;48.758;9.290;2023-12-22T15:42:57;9.40;1.00
429;DHT22;201;48.758;9.290;2023-12-22T15:45:22;9.40;1.00
429;DHT22;201;48.758;9.290;2023-12-22T15:47:48;9.30;1.00
429;DHT22;201;48.758;9.290;2023-12-22T15:50:14;9.40;1.00
429;DHT22;201;48.758;9.290;2023-12-22T15:52:41;9.40;1.00
429;DHT22;201;48.758;9.290;2023-12-22T15:55:07;9.40;1.00
429;DHT22;201;48.758;9.290;2023-12-22T15:57:34;9.40;1.00
429;DHT22;201;48.758;9.290;2023-12-22T16:00:00;9.40;1.00
429;DHT22;201;48.758;9.290;2023-12-22T16:02:25;9.40;1.00
429;DHT22;201;48.758;9.290;2023-12-22T16:04:51;9.40;1.00
429;DHT22;201;48.758;9.290;2023-12-22T16:07:16;9.50;1.00
429;DHT22;201;48.758;9.290;2023-12-22T16:09:42;9.50;1.00
429;DHT22;201;48.758;9.290;2023-12-22T16:12:07;9.50;1.00
429;DHT22;201;48.758;9.290;2023-12-22T16:14:33;9.50;1.00
429;DHT22;201;48.758;9.290;2023-12-22T16:16:59;9.50;1.00
429;DHT22;201;48.758;9.290;2023-12-22T16:19:25;9.50;1.00
429;DHT22;201;48.758;9.290;2023-12-22T16:21:50;9.50;1.00
429;DHT22;201;48.758;9.290;2023-12-22T16:24:19;9.50;1.00
429;DHT22;201;48.758;9.290;2023-12-22T16:26:45;9.50;1.00
429;DHT22;201;48.758;9.290;2023-12-22T16:29:11;9.50;1.00
429;DHT22;201;48.758;9.290;2023-12-22T16:31:42;9.50;1.00
429;DHT22;201;48.758;9.290;2023-12-22T16:34:08;9.60;1.00
429;DHT22;201;48.758;9.290;2023-12-22T16:36:34;9.60;1.00
429;DHT22;201;48.758;9.290;2023-12-22T16:38:59;9.60;1.00
429;DHT22;201;48.758;9.290;2023-12-22T16:41:25;9.50;1.00
429;DHT22;201;48.758;9.290;2023-12-22T16:43:50;9.60;1.00
429;DHT22;201;48.758;9.290;2023-12-22T16:46:19;9.50;1.00
429;DHT22;201;48.758;9.290;2023-12-22T16:48:45;9.50;1.00
429;DHT22;201;48.758;9.290;2023-12-22T16:51:12;9.50;1.00
429;DHT22;201;48.758;9.290;2023-12-22T16:53:37;9.60;1.30
429;DHT22;201;48.758;9.290;2023-12-22T16:56:03;9.60;1.00
429;DHT22;201;48.758;9.290;2023-12-22T16:58:29;9.60;1.00
429;DHT22;201;48.758;9.290;2023-12-22T17:00:54;9.60;1.00
429;DHT22;201;48.758;9.290;2023-12-22T17:03:20;9.50;1.00
429;DHT22;201;48.758;9.290;2023-12-22T17:05:45;9.50;1.00
429;DHT22;201;48.758;9.290;2023-12-22T17:08:11;9.50;1.00
429;DHT22;201;48.758;9.290;2023-12-22T17:10:38;9.50;1.00
429;DHT22;201;48.758;9.290;2023-12-22T17:13:04;9.50;1.00
429;DHT22;201;48.758;9.290;2023-12-22T17:15:30;9.50;1.00
429;DHT22;201;48.758;9.290;2023-12-22T17:17:55;9.50;1.00